Time;durP1;ratioP1;P1;durP2;ratioP2;P2;SDS_P1;SDS_P2;PMS_P1;PMS_P2;Temp;Humidity;BMP_temperature;BMP_pressure;BME280_temperature;BME280_humidity;BME280_pressure;Samples;Min_cycle;Max_cycle;Signal;HPM_P1;HPM_P2
2022/12/06 00:00:52;;;;;;;;;;;;;;;5.49;74.38;101222.38;5078063;28;3903;-79
2022/12/06 00:03:18;;;;;;;;;;;;;;;5.41;74.82;101225.03;5075215;28;4254;-79
2022/12/06 00:05:45;;;;;;;;;;;;;;;5.35;75.35;101228.41;5076827;28;4058;-78
2022/12/06 00:08:11;;;;;;;;;;;;;;;5.33;75.60;101225.91;5073748;28;4357;-79
2022/12/06 00:10:38;;;;;;;;;;;;;;;5.34;75.58;101216.88;5077945;28;3815;-77
2022/12/06 00:13:04;;;;;;;;;;;;;;;5.35;75.33;101223.06;5077658;28;4125;-77
2022/12/06 00:15:31;;;;;;;;;;;;;;;5.40;74.80;101220.72;5074676;28;3893;-79
2022/12/06 00:17:57;;;;;;;;;;;;;;;5.53;74.49;101222.84;5075049;28;4242;-76
2022/12/06 00:20:24;;;;;;;;;;;;;;;5.37;75.13;101210.38;5065111;28;4217;-79
2022/12/06 00:22:51;;;;;;;;;;;;;;;5.56;74.14;101214.50;5076241;28;4256;-78
2022/12/06 00:25:17;;;;;;;;;;;;;;;5.38;75.13;101207.53;5074758;28;4232;-80
2022/12/06 00:27:44;;;;;;;;;;;;;;;5.50;74.83;101208.03;5075495;28;4224;-79
2022/12/06 00:30:10;;;;;;;;;;;;;;;5.42;74.73;101211.53;5075697;28;4169;-79
2022/12/06 00:32:37;;;;;;;;;;;;;;;5.48;74.79;101207.34;5072847;28;4224;-77
2022/12/06 00:35:03;;;;;;;;;;;;;;;5.39;74.97;101198.53;5079396;28;4265;-77
2022/12/06 00:37:30;;;;;;;;;;;;;;;5.43;74.96;101199.00;5057093;28;4309;-76
2022/12/06 00:39:56;;;;;;;;;;;;;;;5.70;73.97;101195.91;5076052;28;4708;-77
2022/12/06 00:42:23;;;;;;;;;;;;;;;5.59;74.52;101188.28;5058709;28;4395;-78
2022/12/06 00:44:49;;;;;;;;;;;;;;;5.58;74.51;101191.94;5056010;28;4518;-79
2022/12/06 00:47:16;;;;;;;;;;;;;;;5.66;74.60;101191.09;5072836;28;4288;-79
2022/12/06 00:49:42;;;;;;;;;;;;;;;5.72;74.35;101192.25;5073686;28;4183;-76
2022/12/06 00:52:09;;;;;;;;;;;;;;;5.60;74.53;101197.97;5048801;28;4423;-77
2022/12/06 00:54:36;;;;;;;;;;;;;;;5.50;74.62;101193.81;5073333;28;4154;-78
2022/12/06 00:57:02;;;;;;;;;;;;;;;5.73;74.57;101186.72;5073075;28;4138;-76
2022/12/06 00:59:29;;;;;;;;;;;;;;;5.58;74.32;101181.25;5057318;28;4174;-76
2022/12/06 01:01:55;;;;;;;;;;;;;;;5.70;74.02;101179.88;5058534;28;4240;-80
2022/12/06 01:04:22;;;;;;;;;;;;;;;5.51;74.63;101171.44;5074246;28;4440;-76
2022/12/06 01:06:48;;;;;;;;;;;;;;;5.56;74.86;101166.41;5074263;28;4297;-80
2022/12/06 01:09:15;;;;;;;;;;;;;;;5.55;74.71;101157.56;5057769;28;4591;-78
2022/12/06 01:11:41;;;;;;;;;;;;;;;5.69;73.76;101164.84;5057899;28;4146;-78
2022/12/06 01:14:08;;;;;;;;;;;;;;;5.58;74.47;101167.06;5072479;28;4211;-77
2022/12/06 01:16:34;;;;;;;;;;;;;;;5.71;74.39;101159.34;5073734;28;4264;-80
2022/12/06 01:19:01;;;;;;;;;;;;;;;5.61;74.52;101153.34;5072290;28;4452;-77
2022/12/06 01:21:27;;;;;;;;;;;;;;;5.59;74.13;101161.56;5075057;28;4295;-77
2022/12/06 01:23:54;;;;;;;;;;;;;;;5.67;74.16;101150.00;5076682;28;4355;-76
2022/12/06 01:26:20;;;;;;;;;;;;;;;5.66;74.44;101149.16;5071035;28;4154;-76
2022/12/06 01:28:47;;;;;;;;;;;;;;;5.65;74.17;101133.31;5078410;28;4342;-78
2022/12/06 01:31:14;;;;;;;;;;;;;;;5.66;74.38;101138.47;5072374;28;4399;-76
2022/12/06 01:33:40;;;;;;;;;;;;;;;5.63;74.76;101138.81;5080957;28;4467;-77
2022/12/06 01:36:07;;;;;;;;;;;;;;;5.65;74.26;101131.47;5074873;28;4097;-78
2022/12/06 01:38:34;;;;;;;;;;;;;;;5.60;74.01;101125.81;5062951;28;4304;-76
2022/12/06 01:41:00;;;;;;;;;;;;;;;5.67;74.05;101123.28;5082087;28;3838;-78
2022/12/06 01:43:27;;;;;;;;;;;;;;;5.88;73.75;101126.19;5090190;28;4545;-78
2022/12/06 01:45:53;;;;;;;;;;;;;;;5.66;74.23;101119.78;5080170;28;3909;-77
2022/12/06 01:48:20;;;;;;;;;;;;;;;5.71;74.49;101124.59;5072229;28;3968;-76
2022/12/06 01:50:46;;;;;;;;;;;;;;;5.74;73.80;101112.75;5073179;28;4352;-78
2022/12/06 01:53:14;;;;;;;;;;;;;;;5.80;73.69;101120.06;5058085;28;4383;-79
2022/12/06 01:55:40;;;;;;;;;;;;;;;5.78;73.69;101112.19;5075293;28;4196;-78
2022/12/06 01:58:07;;;;;;;;;;;;;;;5.64;74.10;101104.91;5072181;28;4128;-77
2022/12/06 02:00:34;;;;;;;;;;;;;;;5.76;74.26;101108.84;5077225;28;4338;-75
2022/12/06 02:03:00;;;;;;;;;;;;;;;5.74;73.98;101104.72;5069972;28;4142;-77
2022/12/06 02:05:27;;;;;;;;;;;;;;;5.75;73.65;101101.03;5072274;28;4353;-79
2022/12/06 02:07:53;;;;;;;;;;;;;;;5.66;74.22;101098.38;5072171;28;4085;-79
2022/12/06 02:10:20;;;;;;;;;;;;;;;5.86;73.42;101100.66;5055703;28;4717;-78
2022/12/06 02:12:47;;;;;;;;;;;;;;;5.74;73.89;101088.69;5060653;28;4325;-80
2022/12/06 02:15:13;;;;;;;;;;;;;;;5.70;74.08;101093.53;5069812;28;4220;-77
2022/12/06 02:17:40;;;;;;;;;;;;;;;5.76;74.20;101092.00;5058459;28;4308;-80
2022/12/06 02:20:06;;;;;;;;;;;;;;;5.72;74.15;101080.81;5071108;28;4328;-79
2022/12/06 02:22:33;;;;;;;;;;;;;;;5.84;74.04;101074.06;5055647;28;4157;-78
2022/12/06 02:24:59;;;;;;;;;;;;;;;5.89;73.74;101071.72;5070623;28;4282;-77
2022/12/06 02:27:27;;;;;;;;;;;;;;;5.91;73.39;101063.50;5070588;28;4234;-75
2022/12/06 02:29:53;;;;;;;;;;;;;;;5.92;73.45;101070.53;5058858;28;4155;-80
2022/12/06 02:32:19;;;;;;;;;;;;;;;5.74;73.80;101064.63;5054670;28;4061;-78
2022/12/06 02:34:46;;;;;;;;;;;;;;;5.81;73.91;101066.41;5072235;28;4291;-77
2022/12/06 02:37:13;;;;;;;;;;;;;;;5.82;73.80;101061.88;5064100;28;4196;-78
2022/12/06 02:39:39;;;;;;;;;;;;;;;5.78;73.78;101060.59;5068735;28;4255;-79
2022/12/06 02:42:06;;;;;;;;;;;;;;;5.88;73.65;101054.00;5071521;28;4221;-76
2022/12/06 02:44:32;;;;;;;;;;;;;;;5.88;73.55;101047.81;5053902;28;4295;-78
2022/12/06 02:46:59;;;;;;;;;;;;;;;5.72;74.03;101053.28;5053472;28;4007;-79
2022/12/06 02:49:25;;;;;;;;;;;;;;;5.86;73.61;101039.97;5058601;28;4433;-77
2022/12/06 02:51:53;;;;;;;;;;;;;;;5.81;73.66;101034.31;5083374;28;4663;-80
2022/12/06 02:54:19;;;;;;;;;;;;;;;5.88;73.54;101035.31;5060502;28;4202;-78
2022/12/06 02:56:46;;;;;;;;;;;;;;;5.88;73.28;101040.66;5068856;28;4393;-77
2022/12/06 02:59:13;;;;;;;;;;;;;;;5.76;74.16;101034.00;5074925;28;4220;-78
2022/12/06 03:01:39;;;;;;;;;;;;;;;5.95;73.29;101042.66;5073716;28;4308;-77
2022/12/06 03:04:06;;;;;;;;;;;;;;;5.94;73.49;101028.41;5052401;28;4072;-78
2022/12/06 03:06:32;;;;;;;;;;;;;;;5.92;73.77;101041.94;5073193;28;4269;-77
2022/12/06 03:08:59;;;;;;;;;;;;;;;6.06;72.98;101045.75;5058903;28;4377;-80
2022/12/06 03:11:26;;;;;;;;;;;;;;;5.96;73.45;101025.59;5074370;28;4278;-78
2022/12/06 03:13:52;;;;;;;;;;;;;;;5.86;74.04;101023.94;5059937;28;4278;-79
2022/12/06 03:16:19;;;;;;;;;;;;;;;6.00;73.10;101013.50;5050378;28;4258;-78
2022/12/06 03:18:45;;;;;;;;;;;;;;;5.89;73.84;101015.56;5074313;28;4057;-77
2022/12/06 03:21:12;;;;;;;;;;;;;;;6.02;73.31;101009.66;5058715;28;4278;-77
2022/12/06 03:23:38;;;;;;;;;;;;;;;5.98;73.93;101010.19;5070527;28;4017;-77
2022/12/06 03:26:05;;;;;;;;;;;;;;;5.79;74.09;101014.13;5071550;28;4100;-75
2022/12/06 03:28:31;;;;;;;;;;;;;;;5.95;74.03;101005.22;5075705;28;4228;-77
2022/12/06 03:30:58;;;;;;;;;;;;;;;5.94;73.67;101000.84;5069404;28;4280;-77
2022/12/06 03:33:25;;;;;;;;;;;;;;;5.99;73.13;101001.16;5060848;28;4320;-80
2022/12/06 03:35:51;;;;;;;;;;;;;;;6.18;72.53;100997.16;5069499;28;4407;-77
2022/12/06 03:38:18;;;;;;;;;;;;;;;6.01;73.30;100994.63;5067744;28;4284;-77
2022/12/06 03:40:44;;;;;;;;;;;;;;;6.03;73.08;100997.97;5068572;28;4226;-76
2022/12/06 03:43:11;;;;;;;;;;;;;;;5.99;73.68;100998.47;5071033;28;4226;-78
2022/12/06 03:45:37;;;;;;;;;;;;;;;6.11;72.99;100991.69;5063716;28;4346;-75
2022/12/06 03:48:04;;;;;;;;;;;;;;;6.00;73.39;100984.94;5063087;28;4289;-78
2022/12/06 03:50:30;;;;;;;;;;;;;;;5.96;73.51;100997.00;5070042;28;4322;-78
2022/12/06 03:52:57;;;;;;;;;;;;;;;6.01;73.47;100991.94;5072715;28;4265;-79
2022/12/06 03:55:23;;;;;;;;;;;;;;;6.18;72.71;100992.66;5071616;28;4122;-78
2022/12/06 03:57:50;;;;;;;;;;;;;;;6.04;73.50;100985.41;5070338;28;5008;-77
2022/12/06 04:00:17;;;;;;;;;;;;;;;6.07;73.23;100983.22;5068179;28;4283;-78
2022/12/06 04:02:44;;;;;;;;;;;;;;;6.04;72.94;100972.88;5069850;28;4381;-76
2022/12/06 04:05:10;;;;;;;;;;;;;;;6.17;72.42;100974.94;5072521;28;4492;-76
2022/12/06 04:07:37;;;;;;;;;;;;;;;6.09;72.87;100975.03;5071462;28;4240;-75
2022/12/06 04:10:03;;;;;;;;;;;;;;;6.04;72.96;100980.91;5074225;28;4370;-77
2022/12/06 04:15:16;;;;;;;;;;;;;;;5.97;73.19;100979.09;5069352;28;4303;-77
2022/12/06 04:20:26;;;;;;;;;;;;;;;6.09;73.28;100975.03;5058825;28;4575;-77
2022/12/06 04:23:03;;;;;;;;;;;;;;;6.11;73.16;100975.66;5074312;28;4243;-79
2022/12/06 04:25:30;;;;;;;;;;;;;;;5.99;73.76;100977.09;5077267;28;4140;-78
2022/12/06 04:38:52;;;;;;;;;;;;;;;6.04;73.11;100961.34;5074083;28;4230;-77
2022/12/06 04:43:59;;;;;;;;;;;;;;;6.12;72.82;100939.91;5060218;28;4288;-76
2022/12/06 04:46:26;;;;;;;;;;;;;;;6.10;73.05;100944.59;5059607;28;4108;-76
2022/12/06 04:48:53;;;;;;;;;;;;;;;6.12;72.95;100942.56;5076435;28;4261;-77
2022/12/06 04:51:19;;;;;;;;;;;;;;;6.09;73.14;100938.41;5074267;28;4167;-78
2022/12/06 04:53:46;;;;;;;;;;;;;;;6.18;73.14;100933.81;5078238;28;3958;-78
2022/12/06 04:56:12;;;;;;;;;;;;;;;6.16;73.35;100941.19;5074182;28;4256;-77
2022/12/06 04:58:39;;;;;;;;;;;;;;;6.20;72.83;100933.63;5058329;28;4353;-77
2022/12/06 05:01:05;;;;;;;;;;;;;;;6.27;72.88;100938.06;5073692;28;4310;-76
2022/12/06 05:03:32;;;;;;;;;;;;;;;6.23;72.87;100933.25;5067438;28;4397;-77
2022/12/06 05:05:58;;;;;;;;;;;;;;;6.11;73.22;100936.38;5078274;28;4216;-78
2022/12/06 05:08:25;;;;;;;;;;;;;;;6.05;73.09;100928.25;5076540;28;3981;-77
2022/12/06 05:10:52;;;;;;;;;;;;;;;6.03;73.43;100932.94;5059587;28;4202;-78
2022/12/06 05:13:18;;;;;;;;;;;;;;;6.22;72.66;100932.44;5081232;28;4130;-78
2022/12/06 05:15:45;;;;;;;;;;;;;;;6.15;73.41;100926.16;5076924;28;4388;-77
2022/12/06 05:18:11;;;;;;;;;;;;;;;6.31;72.25;100922.47;5080333;28;4484;-76
2022/12/06 05:20:38;;;;;;;;;;;;;;;6.28;72.29;100921.00;5072622;28;4268;-77
2022/12/06 05:23:04;;;;;;;;;;;;;;;6.21;72.97;100919.25;5091292;28;4229;-76
2022/12/06 05:25:31;;;;;;;;;;;;;;;6.13;72.73;100920.97;5055479;28;4427;-78
2022/12/06 05:27:58;;;;;;;;;;;;;;;6.20;72.65;100917.56;5073956;28;4113;-76
2022/12/06 05:30:24;;;;;;;;;;;;;;;6.30;72.49;100918.16;5073917;28;4239;-77
2022/12/06 05:32:51;;;;;;;;;;;;;;;6.13;73.00;100912.94;5062474;28;4390;-77
2022/12/06 05:35:17;;;;;;;;;;;;;;;6.27;72.66;100914.00;5079456;28;4387;-75
2022/12/06 05:37:44;;;;;;;;;;;;;;;6.26;72.36;100906.97;5064352;28;4348;-78
2022/12/06 05:40:10;;;;;;;;;;;;;;;6.20;72.54;100907.69;5074725;28;4275;-76
2022/12/06 05:42:37;;;;;;;;;;;;;;;6.32;72.70;100905.41;5072770;28;4209;-78
2022/12/06 05:45:04;;;;;;;;;;;;;;;6.40;71.92;100909.84;5069964;28;4358;-77
2022/12/06 05:47:30;;;;;;;;;;;;;;;6.37;72.65;100916.41;5078899;28;4485;-76
2022/12/06 05:49:57;;;;;;;;;;;;;;;6.38;72.38;100915.38;5073360;28;4233;-77
2022/12/06 05:52:23;;;;;;;;;;;;;;;6.23;72.83;100904.66;5076071;28;4395;-77
2022/12/06 05:54:50;;;;;;;;;;;;;;;6.30;73.05;100904.78;5062943;28;4119;-77
2022/12/06 05:57:16;;;;;;;;;;;;;;;6.37;71.87;100911.03;5075575;28;4261;-78
2022/12/06 05:59:43;;;;;;;;;;;;;;;6.41;72.53;100906.16;5070559;28;4327;-77
2022/12/06 06:02:09;;;;;;;;;;;;;;;6.33;72.73;100905.25;5075391;28;4205;-77
2022/12/06 06:04:36;;;;;;;;;;;;;;;6.34;72.52;100906.06;5077772;28;3803;-77
2022/12/06 06:07:02;;;;;;;;;;;;;;;6.40;72.09;100904.50;5073399;28;3567;-77
2022/12/06 06:09:29;;;;;;;;;;;;;;;6.42;72.10;100910.50;5073339;28;3745;-77
2022/12/06 06:11:55;;;;;;;;;;;;;;;6.39;72.33;100900.19;5068562;28;4006;-77
2022/12/06 06:14:22;;;;;;;;;;;;;;;6.28;72.47;100902.28;5055618;28;3908;-78
2022/12/06 06:16:50;;;;;;;;;;;;;;;6.47;72.08;100900.06;5076929;28;3767;-77
2022/12/06 06:19:17;;;;;;;;;;;;;;;6.49;72.21;100900.72;5075027;28;3834;-77
2022/12/06 06:21:44;;;;;;;;;;;;;;;6.44;71.92;100895.94;5073663;28;3792;-75
2022/12/06 06:24:10;;;;;;;;;;;;;;;6.49;71.85;100898.03;5057610;28;4027;-78
2022/12/06 06:26:37;;;;;;;;;;;;;;;6.48;72.31;100902.56;5071957;28;4152;-77
2022/12/06 06:29:03;;;;;;;;;;;;;;;6.49;72.15;100901.53;5061336;28;4332;-77
2022/12/06 06:31:30;;;;;;;;;;;;;;;6.43;72.48;100894.25;5056615;28;4383;-77
2022/12/06 06:33:56;;;;;;;;;;;;;;;6.49;72.15;100900.72;5057539;28;4289;-77
2022/12/06 06:36:23;;;;;;;;;;;;;;;6.47;71.80;100902.75;5066978;28;4344;-77
2022/12/06 06:38:49;;;;;;;;;;;;;;;6.48;71.96;100897.22;5073434;28;4516;-77
2022/12/06 06:41:16;;;;;;;;;;;;;;;6.54;71.92;100896.47;5070842;28;4513;-76
2022/12/06 06:43:42;;;;;;;;;;;;;;;6.50;72.01;100892.53;5068473;28;4394;-75
2022/12/06 06:46:09;;;;;;;;;;;;;;;6.46;72.18;100899.25;5074340;28;4236;-76
2022/12/06 06:48:35;;;;;;;;;;;;;;;6.42;72.90;100892.59;5090673;28;4550;-75
2022/12/06 06:51:02;;;;;;;;;;;;;;;6.49;72.12;100887.34;5058212;28;4871;-77
2022/12/06 06:53:30;;;;;;;;;;;;;;;6.40;72.52;100883.09;5074489;28;4448;-77
2022/12/06 06:55:56;;;;;;;;;;;;;;;6.43;72.81;100888.91;5075371;28;4294;-77
2022/12/06 06:58:23;;;;;;;;;;;;;;;6.45;72.17;100891.41;5053633;28;4577;-77
2022/12/06 07:00:50;;;;;;;;;;;;;;;6.37;72.22;100890.47;5071108;28;4144;-76
2022/12/06 07:03:18;;;;;;;;;;;;;;;6.53;72.11;100894.81;5058120;28;4160;-76
2022/12/06 07:05:45;;;;;;;;;;;;;;;6.49;72.25;100890.84;5058112;28;4326;-77
2022/12/06 07:08:11;;;;;;;;;;;;;;;6.40;72.40;100883.91;5076566;28;3999;-77
2022/12/06 07:10:38;;;;;;;;;;;;;;;6.51;72.32;100893.34;5073381;28;4227;-77
2022/12/06 07:13:04;;;;;;;;;;;;;;;6.49;72.51;100888.16;5078511;28;4090;-77
2022/12/06 07:15:31;;;;;;;;;;;;;;;6.36;72.55;100878.13;5072819;28;4294;-77
2022/12/06 07:17:58;;;;;;;;;;;;;;;6.40;72.56;100867.88;5075162;28;4097;-78
2022/12/06 07:20:24;;;;;;;;;;;;;;;6.44;72.53;100876.34;5079385;28;4437;-78
2022/12/06 07:22:51;;;;;;;;;;;;;;;6.39;72.69;100878.78;5073405;28;4157;-77
2022/12/06 07:25:17;;;;;;;;;;;;;;;6.34;72.39;100869.44;5078150;28;4062;-76
2022/12/06 07:27:44;;;;;;;;;;;;;;;6.43;72.84;100870.19;5078082;28;4398;-77
2022/12/06 07:30:11;;;;;;;;;;;;;;;6.33;72.58;100869.63;5075834;28;4347;-76
2022/12/06 07:32:37;;;;;;;;;;;;;;;6.36;72.64;100861.25;5076579;28;4167;-76
2022/12/06 07:35:04;;;;;;;;;;;;;;;6.35;73.30;100865.75;5057527;28;4049;-77
2022/12/06 07:37:30;;;;;;;;;;;;;;;6.28;72.68;100862.16;5060268;28;4168;-77
2022/12/06 07:39:57;;;;;;;;;;;;;;;6.37;73.13;100865.56;5071234;28;3857;-78
2022/12/06 07:45:08;;;;;;;;;;;;;;;6.33;72.57;100869.63;5058180;28;4121;-78
2022/12/06 07:47:35;;;;;;;;;;;;;;;6.31;72.59;100859.09;5091483;28;4540;-77
2022/12/06 07:50:01;;;;;;;;;;;;;;;6.36;72.88;100858.56;5074399;28;4121;-77
2022/12/06 07:52:28;;;;;;;;;;;;;;;6.30;73.23;100865.47;5080106;28;4187;-77
2022/12/06 07:54:54;;;;;;;;;;;;;;;6.26;73.35;100858.00;5061567;28;4084;-77
2022/12/06 07:57:21;;;;;;;;;;;;;;;6.32;72.87;100863.47;5077280;28;3707;-77
2022/12/06 07:59:47;;;;;;;;;;;;;;;6.31;72.85;100869.81;5086192;28;3687;-76
2022/12/06 08:02:14;;;;;;;;;;;;;;;6.36;72.85;100866.59;5069592;28;4260;-78
2022/12/06 08:04:41;;;;;;;;;;;;;;;6.23;73.03;100856.50;5070353;28;3945;-77
2022/12/06 08:07:07;;;;;;;;;;;;;;;6.23;73.23;100867.22;5049314;28;4152;-78
2022/12/06 08:09:34;;;;;;;;;;;;;;;6.24;73.13;100860.88;5084378;28;4027;-78
2022/12/06 08:12:00;;;;;;;;;;;;;;;6.25;73.11;100854.50;5052716;28;3965;-75
2022/12/06 08:14:27;;;;;;;;;;;;;;;6.11;73.50;100852.63;5056586;28;3996;-76
2022/12/06 08:16:53;;;;;;;;;;;;;;;6.22;73.67;100851.38;5073682;28;4012;-78
2022/12/06 08:19:20;;;;;;;;;;;;;;;6.15;73.86;100848.59;5070512;28;4100;-76
2022/12/06 08:21:47;;;;;;;;;;;;;;;6.07;73.85;100844.16;5078537;28;4236;-76
2022/12/06 08:24:13;;;;;;;;;;;;;;;6.12;73.48;100851.63;5071476;28;4230;-76
2022/12/06 08:26:40;;;;;;;;;;;;;;;6.12;73.56;100843.63;5064791;28;3721;-77
2022/12/06 08:29:07;;;;;;;;;;;;;;;6.05;74.04;100851.53;5077129;28;3903;-78
2022/12/06 08:31:34;;;;;;;;;;;;;;;6.09;73.69;100841.31;5055211;28;3956;-77
2022/12/06 08:34:00;;;;;;;;;;;;;;;6.14;74.32;100839.72;5074880;28;4484;-77
2022/12/06 08:36:27;;;;;;;;;;;;;;;6.04;74.22;100836.50;5056883;28;4226;-77
2022/12/06 08:38:54;;;;;;;;;;;;;;;6.13;73.86;100838.06;5077523;28;4033;-77
2022/12/06 08:44:01;;;;;;;;;;;;;;;6.07;74.29;100827.28;5037874;28;4391;-77
2022/12/06 08:46:28;;;;;;;;;;;;;;;6.02;73.90;100829.66;5052437;28;4004;-77
2022/12/06 08:48:54;;;;;;;;;;;;;;;6.05;73.61;100835.47;5051896;28;3941;-78
2022/12/06 08:51:21;;;;;;;;;;;;;;;6.01;74.40;100836.88;5053459;28;4088;-78
2022/12/06 08:53:47;;;;;;;;;;;;;;;6.07;73.50;100835.31;5071150;28;4124;-78
2022/12/06 08:56:14;;;;;;;;;;;;;;;6.01;74.31;100831.53;5071744;28;4310;-79
2022/12/06 08:58:40;;;;;;;;;;;;;;;6.00;74.07;100829.00;5072434;28;3301;-76
2022/12/06 09:01:07;;;;;;;;;;;;;;;6.11;73.73;100829.38;5074303;28;3994;-77
2022/12/06 09:03:33;;;;;;;;;;;;;;;6.02;73.96;100824.31;5052071;28;4174;-77
2022/12/06 09:06:00;;;;;;;;;;;;;;;6.18;73.38;100817.94;5057623;28;4021;-77
2022/12/06 09:08:26;;;;;;;;;;;;;;;6.01;74.01;100825.34;5068829;28;4018;-78
2022/12/06 09:10:53;;;;;;;;;;;;;;;5.96;74.03;100820.53;5070597;28;4264;-78
2022/12/06 09:13:20;;;;;;;;;;;;;;;6.02;74.68;100824.31;5072435;28;3789;-78
2022/12/06 09:15:46;;;;;;;;;;;;;;;5.95;74.37;100818.88;5070677;28;4120;-77
2022/12/06 09:18:13;;;;;;;;;;;;;;;6.13;73.37;100816.69;5071459;28;4239;-78
2022/12/06 09:20:39;;;;;;;;;;;;;;;6.11;73.52;100815.19;5078039;28;4121;-76
2022/12/06 09:23:06;;;;;;;;;;;;;;;6.05;74.47;100810.59;5071774;28;4174;-77
2022/12/06 09:25:32;;;;;;;;;;;;;;;5.99;74.03;100800.63;5072038;28;3805;-77
2022/12/06 09:27:59;;;;;;;;;;;;;;;5.88;74.65;100809.88;5054693;28;4164;-78
2022/12/06 09:30:25;;;;;;;;;;;;;;;5.98;74.47;100801.66;5079005;28;4081;-78
2022/12/06 09:32:52;;;;;;;;;;;;;;;5.92;74.45;100798.66;5073315;28;4132;-77
2022/12/06 09:35:18;;;;;;;;;;;;;;;5.95;73.95;100805.50;5080468;28;3978;-78
2022/12/06 09:37:45;;;;;;;;;;;;;;;6.05;74.04;100808.72;5055914;28;3992;-77
2022/12/06 09:40:11;;;;;;;;;;;;;;;5.94;74.04;100803.00;5069602;28;4357;-78
2022/12/06 09:42:38;;;;;;;;;;;;;;;6.04;74.07;100801.75;5074593;28;4175;-78
2022/12/06 09:45:04;;;;;;;;;;;;;;;5.97;74.00;100800.81;5072301;28;4117;-78
2022/12/06 09:47:31;;;;;;;;;;;;;;;5.96;74.03;100795.66;5055891;28;3763;-79
2022/12/06 09:49:58;;;;;;;;;;;;;;;6.10;73.63;100801.00;5067792;28;4258;-79
2022/12/06 09:52:24;;;;;;;;;;;;;;;5.98;74.73;100796.31;5055416;28;4237;-79
2022/12/06 09:54:51;;;;;;;;;;;;;;;5.93;74.54;100788.81;5076134;28;4331;-79
2022/12/06 09:57:17;;;;;;;;;;;;;;;6.03;73.99;100794.75;5072286;28;4123;-79
2022/12/06 09:59:44;;;;;;;;;;;;;;;5.91;74.34;100798.81;5077113;28;4071;-79
2022/12/06 10:02:10;;;;;;;;;;;;;;;6.01;74.55;100798.59;5071291;28;4093;-78
2022/12/06 10:04:38;;;;;;;;;;;;;;;5.95;74.48;100799.34;5058350;28;3918;-78
2022/12/06 10:07:04;;;;;;;;;;;;;;;5.89;74.53;100793.69;5071779;28;4182;-78
2022/12/06 10:09:31;;;;;;;;;;;;;;;5.80;75.07;100786.75;5067506;28;4355;-79
2022/12/06 10:11:58;;;;;;;;;;;;;;;5.92;74.70;100787.97;5072957;28;4043;-80
2022/12/06 10:14:25;;;;;;;;;;;;;;;5.85;75.10;100780.84;5053254;28;3923;-79
2022/12/06 10:16:52;;;;;;;;;;;;;;;5.96;74.37;100779.59;5073836;28;3730;-78
2022/12/06 10:19:18;;;;;;;;;;;;;;;5.89;74.82;100774.97;5074080;28;3554;-78
2022/12/06 10:21:45;;;;;;;;;;;;;;;5.92;74.72;100766.56;5056191;28;3699;-77
2022/12/06 10:24:11;;;;;;;;;;;;;;;5.83;74.58;100765.00;5069492;28;3739;-78
2022/12/06 10:26:38;;;;;;;;;;;;;;;5.77;75.21;100765.75;5074773;28;3817;-79
2022/12/06 10:29:04;;;;;;;;;;;;;;;5.79;75.28;100763.69;5079312;28;3953;-79
2022/12/06 10:31:31;;;;;;;;;;;;;;;5.76;75.48;100766.72;5076883;28;3594;-80
2022/12/06 10:33:58;;;;;;;;;;;;;;;5.94;75.11;100760.22;5079339;28;3883;-79
2022/12/06 10:36:24;;;;;;;;;;;;;;;5.74;75.62;100759.94;5055471;28;3902;-80
2022/12/06 10:38:51;;;;;;;;;;;;;;;5.72;75.43;100751.25;5078120;28;4074;-80
2022/12/06 10:41:17;;;;;;;;;;;;;;;5.81;75.19;100750.16;5076495;28;4092;-80
2022/12/06 10:43:44;;;;;;;;;;;;;;;5.87;75.14;100742.22;5079057;28;3520;-79
2022/12/06 10:48:55;;;;;;;;;;;;;;;5.67;75.36;100741.94;5070594;28;4309;-81
2022/12/06 10:51:22;;;;;;;;;;;;;;;5.73;75.92;100742.22;5070051;28;4283;-81
2022/12/06 10:53:48;;;;;;;;;;;;;;;5.75;75.11;100745.56;5072156;28;4321;-81
2022/12/06 10:56:15;;;;;;;;;;;;;;;5.87;75.08;100744.91;5072428;28;4310;-82
2022/12/06 10:58:41;;;;;;;;;;;;;;;5.71;75.66;100739.75;5074358;28;4256;-82
2022/12/06 11:01:08;;;;;;;;;;;;;;;5.67;76.06;100739.25;5071833;28;4235;-81
2022/12/06 11:03:35;;;;;;;;;;;;;;;5.63;75.92;100734.47;5072218;28;4362;-81
2022/12/06 11:06:06;;;;;;;;;;;;;;;5.61;76.15;100737.31;5071703;28;4334;-81
2022/12/06 11:08:33;;;;;;;;;;;;;;;5.60;76.21;100726.84;5087165;28;4216;-82
2022/12/06 11:10:59;;;;;;;;;;;;;;;5.64;76.15;100709.41;5059186;28;3151;-80
2022/12/06 11:13:26;;;;;;;;;;;;;;;5.66;76.63;100712.75;5078297;28;4075;-83
2022/12/06 11:15:52;;;;;;;;;;;;;;;5.61;76.22;100721.28;5051605;28;3787;-83
2022/12/06 11:18:19;;;;;;;;;;;;;;;5.61;75.96;100721.28;5052687;28;3606;-81
2022/12/06 11:20:46;;;;;;;;;;;;;;;5.55;76.81;100711.34;5054880;28;4332;-81
2022/12/06 11:23:12;;;;;;;;;;;;;;;5.58;76.22;100705.63;5058730;28;4073;-81
2022/12/06 11:25:39;;;;;;;;;;;;;;;5.58;76.75;100712.81;5056829;28;4102;-82
2022/12/06 11:28:05;;;;;;;;;;;;;;;5.66;76.65;100708.22;5060191;28;4277;-82
2022/12/06 11:30:32;;;;;;;;;;;;;;;5.65;76.33;100706.56;5073465;28;4358;-82
2022/12/06 11:32:59;;;;;;;;;;;;;;;5.62;77.11;100706.94;5079793;28;4171;-81
2022/12/06 11:35:25;;;;;;;;;;;;;;;5.61;76.54;100696.41;5059360;28;4247;-81
2022/12/06 11:37:52;;;;;;;;;;;;;;;5.56;76.60;100694.31;5060263;28;4119;-82
2022/12/06 11:40:18;;;;;;;;;;;;;;;5.61;76.77;100691.06;5065542;28;4170;-83
2022/12/06 11:42:45;;;;;;;;;;;;;;;5.60;76.35;100682.22;5076099;28;3932;-82
2022/12/06 11:45:11;;;;;;;;;;;;;;;5.56;76.50;100680.97;5070152;28;3915;-84
2022/12/06 11:47:38;;;;;;;;;;;;;;;5.55;76.77;100681.94;5070227;28;4123;-84
2022/12/06 11:50:05;;;;;;;;;;;;;;;5.58;76.50;100683.44;5062990;28;4281;-83
2022/12/06 11:52:32;;;;;;;;;;;;;;;5.51;76.68;100680.66;5076853;28;4120;-82
2022/12/06 11:54:58;;;;;;;;;;;;;;;5.52;76.94;100673.47;5060425;28;4166;-83
2022/12/06 11:57:25;;;;;;;;;;;;;;;5.50;76.85;100675.50;5088988;28;3920;-83
2022/12/06 11:59:51;;;;;;;;;;;;;;;5.55;76.74;100667.75;5082133;28;4026;-84
2022/12/06 12:02:18;;;;;;;;;;;;;;;5.53;76.65;100662.63;5078674;28;4140;-83
2022/12/06 12:04:44;;;;;;;;;;;;;;;5.54;77.13;100664.28;5076028;28;4110;-84
2022/12/06 12:07:11;;;;;;;;;;;;;;;5.55;76.89;100665.91;5068649;28;3873;-83
2022/12/06 12:09:37;;;;;;;;;;;;;;;5.54;76.88;100660.78;5078759;28;4233;-83
2022/12/06 12:12:04;;;;;;;;;;;;;;;5.52;76.97;100654.78;5076844;28;4224;-83
2022/12/06 12:14:30;;;;;;;;;;;;;;;5.59;77.38;100659.22;5067694;28;4104;-83
2022/12/06 12:16:57;;;;;;;;;;;;;;;5.58;77.16;100659.38;5081555;28;4211;-83
2022/12/06 12:19:23;;;;;;;;;;;;;;;5.58;77.08;100654.03;5060472;28;4299;-82
2022/12/06 12:21:50;;;;;;;;;;;;;;;5.54;76.81;100661.59;5083515;28;4040;-83
2022/12/06 12:24:17;;;;;;;;;;;;;;;5.56;77.01;100656.06;5083802;28;4073;-83
2022/12/06 12:26:43;;;;;;;;;;;;;;;5.59;77.80;100650.34;5063576;28;3393;-81
2022/12/06 12:29:10;;;;;;;;;;;;;;;5.60;77.13;100644.00;5074044;28;4218;-83
2022/12/06 12:31:36;;;;;;;;;;;;;;;5.61;77.03;100640.31;5056526;28;4064;-82
2022/12/06 12:34:03;;;;;;;;;;;;;;;5.61;76.96;100630.44;5077410;28;4070;-81
2022/12/06 12:36:30;;;;;;;;;;;;;;;5.61;76.90;100637.63;5071550;28;3828;-81
2022/12/06 12:38:56;;;;;;;;;;;;;;;5.59;77.13;100631.63;5054726;28;3889;-82
2022/12/06 12:41:23;;;;;;;;;;;;;;;5.60;77.21;100625.31;5056185;28;3973;-82
2022/12/06 12:43:50;;;;;;;;;;;;;;;5.58;77.40;100614.78;5068654;28;4227;-82
2022/12/06 12:46:17;;;;;;;;;;;;;;;5.60;77.07;100622.63;5077807;28;4159;-81
2022/12/06 12:48:43;;;;;;;;;;;;;;;5.61;77.36;100622.44;5051522;28;4052;-83
2022/12/06 12:51:10;;;;;;;;;;;;;;;5.63;77.38;100615.06;5060252;28;4341;-82
2022/12/06 12:53:36;;;;;;;;;;;;;;;5.61;77.24;100611.75;5078301;28;4381;-81
2022/12/06 12:56:03;;;;;;;;;;;;;;;5.67;76.83;100618.19;5063354;28;4353;-81
2022/12/06 12:58:30;;;;;;;;;;;;;;;5.69;77.64;100614.31;5089010;28;3448;-81
2022/12/06 13:00:56;;;;;;;;;;;;;;;5.67;77.69;100608.31;5052166;28;4172;-82
2022/12/06 13:03:25;;;;;;;;;;;;;;;5.66;77.02;100611.19;5071905;28;4292;-81
2022/12/06 13:05:51;;;;;;;;;;;;;;;5.69;77.74;100608.16;5086044;28;4202;-81
2022/12/06 13:08:18;;;;;;;;;;;;;;;5.64;77.41;100606.03;5068721;28;4181;-81
2022/12/06 13:10:44;;;;;;;;;;;;;;;5.62;77.15;100610.75;5067460;28;4366;-81
2022/12/06 13:13:11;;;;;;;;;;;;;;;5.66;77.63;100597.84;5071852;28;4331;-82
2022/12/06 13:15:37;;;;;;;;;;;;;;;5.67;77.39;100599.47;5081862;28;3250;-80
2022/12/06 13:18:05;;;;;;;;;;;;;;;5.66;77.15;100590.63;5074526;28;3483;-81
2022/12/06 13:20:31;;;;;;;;;;;;;;;5.67;77.19;100586.13;5059442;28;3437;-81